Grissom ARB Airport
KGUS : rendu visible

Aérodrome :











RETROUVEZ-NOUS SUR...

 
LOGIN :

S'inscrire | Disclaimer

   EN    FR    IT 

 









Légende :    VFR   VFR Marginal   IFR   IFR Intensif   IFR Très Intensif
Visi : 
Plafond : 
>= 8 km
>= 3000ft
5 à 8 km
1000 à 3000 ft
1500m à 5 km
500 à 1000 ft
800 à 1500m
200 à 500 ft
< 800m
< 200 ft
Symboles :   Orages  Brouillard  Fortes neiges  Fortes précipitations  Vent > 20 kt






- Altitude de l'aérodrome : 812 ft


KGUS - Grissom ARB

DERNIER METAR :
  • 200156Z 28014KT 10SM BKN007 OVC011 M10/M10 A3040 RMK AO2A SLP316 P0000 T11011104 $

METARs EXPIRÉS :
  • 200057Z COR 29015G20KT 10SM -SN BKN007 OVC012 M10/M11 A3039 RMK AO2A $ COR 0110
  • 200056Z 29015G20KT 10SM -SN BKN007 OVC012 M10/M11 A3039 RMK AO2A SLP312 P0000 T11001107 $
  • 192356Z 29014KT 10SM BKN007 BKN012 OVC018 M10/M11 A3038 RMK AO2A SLP309 60000 T10991107 11099 21125 52024 $

TAF AMD TAF KGUS
Valide du 20 à 00h jusqu'au 21 à 01h UTC


200021Z 2000/2101 30012G18KT 9999 BKN007 BKN012 OVC018 620075 QNH3024INS
TEMPO 2000/2006 28020G25KT 9000 BLSN
BECMG 2005/2006 33009KT 9999 BKN020 QNH3038INS
BECMG 2012/2013 35006KT 9999 SCT015 QNH3040INS TXM02/2019Z TNM10/2000Z



MET'MAP, la Météo Aéronautique d'un coup d'oeil ! - Copyright ORBIFLY Décembre 2007 - Disclaimer

ORBIFLY MET'MAP TEAM :

Programmation & Développement : Alexandra Zaïnal
Sur une idée originale de : Baudouin d'Aumeries
Assistance à la programmation : Marc-Olivier Méhu
Soutien technique & logistique : Manuel Goepfert

Contact : metmap@orbifly.com




SOURCES & CREDITS :

   NOAA       Earth
Advisory